Terminal Aerodrome Forecast
Issued by NWS Cleveland, OH

Home | Current Version | Previous Version | Graphics & Text | Print | Product List | Glossary On
Versions: 1 2 3 4 5 6 7 8 9 10 11 12 13 14 15 16 17 18 19 20 21 22 23
000
FTUS41 KCLE 150500
TAFTOL
TAF
KTOL 150528Z 1506/1606 21006KT 5SM BR OVC015
      TEMPO 1509/1513 1SM BR OVC006
     FM151400 18004KT 4SM BR OVC012
     FM152100 17008KT 6SM HZ OVC035
     FM160300 13006KT 3SM -SHRA SCT012 OVC020=

USA.gov is the U.S. government's official web portal to all federal, state and local government web resources and services.